This is the latest recevied weather packets stored in our database for station/object EB2EMZ-3. If no packets are shown the sender has not sent any weather packets the latest 1 day(s).
| Time | Temp. | Humidity | Pressure | Rain* | Wind** | Luminosity | Snow |
|---|---|---|---|---|---|---|---|
| 1778080770 | 21.67° C | 55% | 1009.8 hPa | 0 mm | - | - | - |
| 1778080470 | 21.11° C | 55% | 1009.8 hPa | 0 mm | - | - | - |
| 1778079870 | 21.11° C | 56% | 1009.9 hPa | 0 mm | - | - | - |
| 1778079270 | 21.11° C | 54% | 1010 hPa | 0 mm | - | - | - |
| 1778078670 | 21.11° C | 55% | 1010.2 hPa | 0 mm | - | - | - |
| 1778077770 | 21.11° C | 53% | 1010.3 hPa | 0 mm | - | - | - |
| 1778076870 | 20.56° C | 53% | 1010.3 hPa | 0 mm | - | - | - |
| 1778074770 | 20.56° C | 54% | 1010.7 hPa | 0 mm | - | - | - |
| 1778069971 | 21.67° C | 42% | 1011.1 hPa | 0 mm | - | - | - |
| 1778069071 | 21.67° C | 41% | 1011.2 hPa | 0 mm | - | - | - |
| 1778068771 | 21.67° C | 42% | 1011.2 hPa | 0 mm | - | - | - |
| 1778068471 | 21.11° C | 43% | 1011.2 hPa | 0 mm | - | - | - |
| 1778068171 | 21.67° C | 43% | 1011.2 hPa | 0 mm | - | - | - |
| 1778067871 | 21.67° C | 43% | 1011.2 hPa | 0 mm | - | - | - |
| 1778067571 | 21.67° C | 42% | 1011.3 hPa | 0 mm | - | - | - |
| 1778067271 | 21.11° C | 41% | 1011.3 hPa | 0 mm | - | - | - |
| 1778066971 | 21.11° C | 41% | 1011.6 hPa | 0 mm | - | - | - |
| 1778066671 | 21.11° C | 43% | 1011.5 hPa | 0 mm | - | - | - |
| 1778066371 | 20.56° C | 45% | 1011.4 hPa | 0 mm | - | - | - |
| 1778066071 | 21.11° C | 44% | 1011.5 hPa | 0 mm | - | - | - |
| 1778065771 | 21.11° C | 44% | 1011.6 hPa | 0 mm | - | - | - |
| 1778065471 | 21.11° C | 44% | 1011.6 hPa | 0 mm | - | - | - |
| 1778065171 | 21.67° C | 44% | 1011.5 hPa | 0 mm | - | - | - |
| 1778064871 | 21.67° C | 44% | 1011.6 hPa | 0 mm | - | - | - |
| 1778064571 | 21.67° C | 44% | 1011.5 hPa | 0 mm | - | - | - |
* Rain latest hour (hover to see other rain measurements)
** Current wind speed in m/s (hover to see current wind gust speed)